Time;durP1;ratioP1;P1;durP2;ratioP2;P2;SDS_P1;SDS_P2;PMS_P1;PMS_P2;Temp;Humidity;BMP_temperature;BMP_pressure;BME280_temperature;BME280_humidity;BME280_pressure;Samples;Min_cycle;Max_cycle;Signal;HPM_P1;HPM_P2
2022/09/17 00:01:41;;;;;;;7.57;3.87;;;;;;;;;;5120291;27;20289;-77
2022/09/17 00:04:08;;;;;;;9.30;4.70;;;;;;;;;;5125404;27;20247;-76
2022/09/17 00:06:36;;;;;;;7.93;5.30;;;;;;;;;;5124084;27;20280;-76
2022/09/17 00:09:04;;;;;;;11.93;6.00;;;;;;;;;;5127269;27;20301;-77
2022/09/17 00:11:32;;;;;;;10.73;6.67;;;;;;;;;;5127219;27;20284;-76
2022/09/17 00:14:03;;;;;;;10.87;6.50;;;;;;;;;;5130949;27;20243;-76
2022/09/17 00:16:32;;;;;;;10.90;6.30;;;;;;;;;;5126979;27;20201;-77
2022/09/17 00:19:00;;;;;;;9.37;6.13;;;;;;;;;;5122102;27;20230;-76
2022/09/17 00:21:27;;;;;;;14.27;6.90;;;;;;;;;;5123534;27;20233;-77
2022/09/17 00:23:56;;;;;;;10.63;6.07;;;;;;;;;;5125593;27;20239;-76
2022/09/17 00:26:23;;;;;;;11.27;6.87;;;;;;;;;;5118214;27;20271;-76
2022/09/17 00:28:51;;;;;;;11.03;6.97;;;;;;;;;;5116877;27;20700;-76
2022/09/17 00:31:19;;;;;;;12.90;7.67;;;;;;;;;;5118392;27;20196;-76
2022/09/17 00:33:46;;;;;;;11.77;7.93;;;;;;;;;;5133030;27;20227;-76
2022/09/17 00:36:14;;;;;;;13.90;7.93;;;;;;;;;;5130971;27;20283;-76
2022/09/17 00:38:41;;;;;;;12.30;8.10;;;;;;;;;;5130254;27;20224;-76
2022/09/17 00:41:09;;;;;;;12.60;7.40;;;;;;;;;;5129583;27;20231;-76
2022/09/17 00:43:38;;;;;;;14.60;7.33;;;;;;;;;;5120672;27;20284;-76
2022/09/17 00:46:07;;;;;;;12.43;7.70;;;;;;;;;;5113609;28;20204;-76
2022/09/17 00:48:36;;;;;;;9.77;6.70;;;;;;;;;;5113495;28;20288;-76
2022/09/17 00:51:04;;;;;;;10.57;5.97;;;;;;;;;;5113519;28;20270;-76
2022/09/17 00:53:31;;;;;;;8.00;5.43;;;;;;;;;;5113137;28;20255;-76
2022/09/17 00:56:02;;;;;;;12.23;6.33;;;;;;;;;;5113302;28;20201;-76
2022/09/17 00:58:30;;;;;;;12.83;6.50;;;;;;;;;;5112793;28;20233;-76
2022/09/17 01:00:58;;;;;;;10.17;6.33;;;;;;;;;;5113315;28;20257;-77
2022/09/17 01:03:26;;;;;;;10.17;6.77;;;;;;;;;;5113334;28;20289;-76
2022/09/17 01:05:59;;;;;;;14.20;7.60;;;;;;;;;;5128882;27;20288;-76
2022/09/17 01:08:29;;;;;;;10.73;7.80;;;;;;;;;;5118054;27;20202;-76
2022/09/17 01:11:13;;;;;;;11.77;8.03;;;;;;;;;;5124889;27;20248;-76
2022/09/17 01:13:45;;;;;;;12.93;8.07;;;;;;;;;;5117647;27;20239;-76
2022/09/17 01:16:19;;;;;;;13.10;8.07;;;;;;;;;;5120369;27;20283;-76
2022/09/17 01:18:53;;;;;;;12.57;7.53;;;;;;;;;;5121945;27;20235;-76
2022/09/17 01:21:39;;;;;;;9.20;6.37;;;;;;;;;;5130230;27;20191;-76
2022/09/17 01:24:21;;;;;;;7.93;5.43;;;;;;;;;;5130913;27;20327;-76
2022/09/17 01:26:59;;;;;;;10.83;6.97;;;;;;;;;;5124731;27;20240;-76
2022/09/17 01:29:34;;;;;;;9.07;6.40;;;;;;;;;;5115107;27;20306;-77
2022/09/17 01:32:08;;;;;;;11.60;6.80;;;;;;;;;;5113367;27;20662;-76
2022/09/17 01:34:41;;;;;;;11.93;7.13;;;;;;;;;;5113163;28;20656;-76
2022/09/17 01:37:13;;;;;;;10.10;6.77;;;;;;;;;;5129894;27;20671;-76
2022/09/17 01:39:50;;;;;;;10.50;7.10;;;;;;;;;;5124978;27;20198;-76
2022/09/17 01:42:19;;;;;;;13.77;7.17;;;;;;;;;;5114038;27;20229;-76
2022/09/17 01:44:51;;;;;;;10.97;6.90;;;;;;;;;;5116627;27;20279;-76
2022/09/17 01:47:22;;;;;;;9.53;6.20;;;;;;;;;;5116362;27;20737;-76
2022/09/17 01:49:50;;;;;;;9.20;5.67;;;;;;;;;;5122814;27;20292;-76
2022/09/17 01:52:19;;;;;;;8.50;5.90;;;;;;;;;;5118403;27;20751;-76
2022/09/17 01:54:48;;;;;;;9.63;6.03;;;;;;;;;;5122699;27;20234;-76
2022/09/17 01:57:17;;;;;;;11.70;5.83;;;;;;;;;;5121582;27;20277;-77
2022/09/17 01:59:46;;;;;;;9.80;5.83;;;;;;;;;;5124473;27;20296;-76
2022/09/17 02:02:15;;;;;;;9.13;5.73;;;;;;;;;;5118443;27;20295;-76
2022/09/17 02:04:47;;;;;;;9.50;5.87;;;;;;;;;;5112869;27;20232;-76
2022/09/17 02:07:18;;;;;;;7.73;5.37;;;;;;;;;;5114220;28;20223;-77
2022/09/17 02:09:47;;;;;;;6.23;4.50;;;;;;;;;;5121502;27;20699;-76
2022/09/17 02:12:18;;;;;;;7.00;4.90;;;;;;;;;;5124943;27;20230;-76
2022/09/17 02:14:47;;;;;;;6.90;4.83;;;;;;;;;;5125555;27;20288;-76
2022/09/17 02:17:17;;;;;;;9.10;5.03;;;;;;;;;;5112402;28;20287;-76
2022/09/17 02:19:46;;;;;;;8.40;5.10;;;;;;;;;;5116131;28;20284;-76
2022/09/17 02:22:17;;;;;;;7.27;4.80;;;;;;;;;;5120537;27;20205;-77
2022/09/17 02:24:47;;;;;;;9.20;5.20;;;;;;;;;;5125577;27;20285;-76
2022/09/17 02:27:18;;;;;;;5.43;4.30;;;;;;;;;;5123666;28;20254;-76
2022/09/17 02:29:45;;;;;;;5.97;3.93;;;;;;;;;;5117469;27;20709;-77
2022/09/17 02:32:13;;;;;;;8.43;4.03;;;;;;;;;;5112012;28;20266;-77
2022/09/17 02:34:40;;;;;;;7.27;4.40;;;;;;;;;;5110715;28;20807;-77
2022/09/17 02:37:09;;;;;;;8.47;4.53;;;;;;;;;;5124885;27;20249;-76
2022/09/17 02:39:37;;;;;;;9.90;4.37;;;;;;;;;;5130731;27;20599;-76
2022/09/17 02:42:09;;;;;;;8.63;4.30;;;;;;;;;;5120833;27;20201;-76
2022/09/17 02:44:41;;;;;;;7.83;4.50;;;;;;;;;;5126425;27;20236;-76
2022/09/17 02:47:14;;;;;;;7.97;4.80;;;;;;;;;;5118180;28;20740;-76
2022/09/17 02:49:49;;;;;;;8.33;4.23;;;;;;;;;;5132053;27;20286;-77
2022/09/17 02:52:22;;;;;;;7.50;4.67;;;;;;;;;;5120153;27;20204;-77
2022/09/17 02:54:53;;;;;;;5.90;4.23;;;;;;;;;;5116213;28;20223;-76
2022/09/17 02:57:22;;;;;;;7.47;4.50;;;;;;;;;;5120219;28;20206;-76
2022/09/17 02:59:53;;;;;;;26.73;15.53;;;;;;;;;;5124661;27;20199;-76
2022/09/17 03:02:23;;;;;;;16.73;11.13;;;;;;;;;;5117888;27;20219;-76
2022/09/17 03:04:51;;;;;;;28.00;16.60;;;;;;;;;;5116627;27;20277;-76
2022/09/17 03:07:20;;;;;;;32.83;19.80;;;;;;;;;;5125724;27;20680;-76
2022/09/17 03:09:48;;;;;;;68.70;41.97;;;;;;;;;;5116394;28;20241;-76
2022/09/17 03:12:15;;;;;;;99.67;58.60;;;;;;;;;;5112542;28;20229;-76
2022/09/17 03:14:42;;;;;;;103.63;59.73;;;;;;;;;;5117795;28;20280;-76
2022/09/17 03:17:10;;;;;;;111.67;66.67;;;;;;;;;;5124834;27;20291;-76
2022/09/17 03:19:37;;;;;;;81.30;51.50;;;;;;;;;;5122985;27;20215;-76
2022/09/17 03:22:04;;;;;;;65.80;43.70;;;;;;;;;;5114700;27;20644;-76
2022/09/17 03:24:33;;;;;;;103.23;65.50;;;;;;;;;;5128593;27;20232;-77
2022/09/17 03:27:00;;;;;;;92.43;59.17;;;;;;;;;;5121380;27;20266;-76
2022/09/17 03:29:27;;;;;;;85.13;52.13;;;;;;;;;;5124369;27;20280;-76
2022/09/17 03:31:54;;;;;;;79.50;50.03;;;;;;;;;;5125187;27;20702;-76
2022/09/17 03:34:22;;;;;;;78.57;49.33;;;;;;;;;;5121856;27;20307;-76
2022/09/17 03:36:49;;;;;;;81.30;50.10;;;;;;;;;;5122711;27;20207;-76
2022/09/17 03:39:16;;;;;;;75.90;46.93;;;;;;;;;;5127693;27;20285;-76
2022/09/17 03:41:45;;;;;;;67.13;45.20;;;;;;;;;;5124160;27;20237;-76
2022/09/17 03:44:13;;;;;;;55.77;37.33;;;;;;;;;;5125008;27;20722;-76
2022/09/17 03:46:40;;;;;;;56.20;37.13;;;;;;;;;;5123166;27;20225;-76
2022/09/17 03:49:08;;;;;;;86.07;54.53;;;;;;;;;;5123973;27;20236;-76
2022/09/17 03:51:35;;;;;;;92.60;56.20;;;;;;;;;;5114985;28;20217;-76
2022/09/17 03:54:03;;;;;;;84.03;54.57;;;;;;;;;;5115148;28;20237;-76
2022/09/17 03:56:30;;;;;;;73.63;49.37;;;;;;;;;;5114297;28;20207;-76
2022/09/17 03:58:59;;;;;;;74.27;47.03;;;;;;;;;;5114576;28;20220;-76
2022/09/17 04:01:27;;;;;;;64.27;41.77;;;;;;;;;;5114650;28;20231;-76
2022/09/17 04:03:54;;;;;;;76.93;48.37;;;;;;;;;;5113695;28;20209;-76
2022/09/17 04:06:21;;;;;;;80.27;49.50;;;;;;;;;;5114753;28;20619;-75
2022/09/17 04:08:48;;;;;;;77.17;49.90;;;;;;;;;;5116596;27;20626;-75
2022/09/17 04:11:16;;;;;;;76.03;48.47;;;;;;;;;;5127609;27;20233;-76
2022/09/17 04:13:43;;;;;;;80.00;50.97;;;;;;;;;;5125861;27;20227;-76
2022/09/17 04:16:11;;;;;;;78.33;48.90;;;;;;;;;;5119260;27;20231;-76
2022/09/17 04:18:39;;;;;;;83.17;51.37;;;;;;;;;;5127183;27;20296;-76
2022/09/17 04:21:06;;;;;;;79.50;49.53;;;;;;;;;;5125282;27;20226;-76
2022/09/17 04:23:33;;;;;;;69.57;45.33;;;;;;;;;;5134198;27;20240;-75
2022/09/17 04:26:00;;;;;;;75.63;46.00;;;;;;;;;;5131032;27;20340;-76
2022/09/17 04:28:28;;;;;;;74.43;46.73;;;;;;;;;;5114659;28;20290;-76
2022/09/17 04:30:56;;;;;;;73.40;46.53;;;;;;;;;;5120049;27;20229;-76
2022/09/17 04:33:25;;;;;;;87.63;56.43;;;;;;;;;;5119317;27;20203;-76
2022/09/17 04:35:52;;;;;;;97.67;58.93;;;;;;;;;;5122783;27;20235;-76
2022/09/17 04:38:21;;;;;;;102.43;67.13;;;;;;;;;;5115100;27;20207;-76
2022/09/17 04:40:48;;;;;;;130.93;82.27;;;;;;;;;;5114754;27;20288;-76
2022/09/17 04:43:16;;;;;;;141.03;86.33;;;;;;;;;;5119812;27;20276;-76
2022/09/17 04:45:45;;;;;;;176.73;114.47;;;;;;;;;;5115614;27;20614;-77
2022/09/17 04:48:12;;;;;;;152.33;100.20;;;;;;;;;;5121810;27;20225;-76
2022/09/17 04:50:41;;;;;;;228.03;141.37;;;;;;;;;;5121770;27;20762;-76
2022/09/17 04:53:08;;;;;;;236.53;148.30;;;;;;;;;;5117975;27;20626;-77
2022/09/17 04:55:36;;;;;;;228.93;142.77;;;;;;;;;;5113232;28;20322;-76
2022/09/17 04:58:03;;;;;;;218.27;137.83;;;;;;;;;;5113504;28;20319;-77
2022/09/17 05:00:30;;;;;;;191.10;125.30;;;;;;;;;;5113271;28;20196;-76
2022/09/17 05:02:57;;;;;;;163.30;110.17;;;;;;;;;;5113050;28;20227;-76
2022/09/17 05:05:25;;;;;;;164.47;107.27;;;;;;;;;;5112259;28;20286;-76
2022/09/17 05:07:53;;;;;;;148.27;97.10;;;;;;;;;;5117352;27;20230;-76
2022/09/17 05:10:21;;;;;;;97.97;63.57;;;;;;;;;;5125322;27;20636;-76
2022/09/17 05:12:49;;;;;;;89.73;57.77;;;;;;;;;;5128094;27;20226;-76
2022/09/17 05:15:17;;;;;;;88.10;54.23;;;;;;;;;;5125370;27;20212;-76
2022/09/17 05:17:44;;;;;;;84.57;55.07;;;;;;;;;;5125009;27;20295;-76
2022/09/17 05:20:12;;;;;;;77.53;53.03;;;;;;;;;;5121219;27;20282;-76
2022/09/17 05:22:41;;;;;;;81.47;53.27;;;;;;;;;;5124841;27;20273;-76
2022/09/17 05:25:10;;;;;;;82.80;51.73;;;;;;;;;;5112856;28;20198;-76
2022/09/17 05:27:39;;;;;;;76.23;48.90;;;;;;;;;;5112378;28;20291;-76
2022/09/17 05:30:07;;;;;;;69.67;48.73;;;;;;;;;;5112485;28;20197;-75
2022/09/17 05:32:34;;;;;;;63.30;45.43;;;;;;;;;;5112381;28;20774;-76
2022/09/17 05:35:01;;;;;;;64.20;42.43;;;;;;;;;;5113081;27;20241;-75
2022/09/17 05:37:28;;;;;;;58.87;39.17;;;;;;;;;;5117561;27;20737;-76
2022/09/17 05:39:56;;;;;;;48.13;34.77;;;;;;;;;;5124966;27;20288;-76
2022/09/17 05:42:24;;;;;;;48.53;31.93;;;;;;;;;;5113368;28;20273;-76
2022/09/17 05:44:51;;;;;;;42.90;30.53;;;;;;;;;;5122650;27;20197;-76
2022/09/17 05:47:18;;;;;;;41.33;28.40;;;;;;;;;;5121280;27;20210;-76
2022/09/17 05:49:46;;;;;;;34.27;23.23;;;;;;;;;;5130395;27;20716;-76
2022/09/17 05:52:13;;;;;;;32.00;21.03;;;;;;;;;;5123334;27;20309;-75
2022/09/17 05:54:40;;;;;;;30.00;20.67;;;;;;;;;;5129309;27;20278;-75
2022/09/17 05:57:07;;;;;;;28.67;18.53;;;;;;;;;;5119899;27;20239;-76
2022/09/17 05:59:36;;;;;;;25.17;15.93;;;;;;;;;;5119779;27;20309;-76
2022/09/17 06:02:04;;;;;;;22.50;16.27;;;;;;;;;;5123757;27;20222;-76
2022/09/17 06:04:31;;;;;;;27.60;18.33;;;;;;;;;;5115607;27;20197;-76
2022/09/17 06:06:58;;;;;;;31.53;19.53;;;;;;;;;;5128875;27;20600;-76
2022/09/17 06:09:25;;;;;;;28.27;18.10;;;;;;;;;;5125791;27;20230;-76
2022/09/17 06:11:52;;;;;;;27.23;18.27;;;;;;;;;;5117606;27;20254;-75
2022/09/17 06:14:19;;;;;;;27.33;17.70;;;;;;;;;;5122016;27;20285;-76
2022/09/17 06:16:48;;;;;;;28.87;17.50;;;;;;;;;;5121677;27;20281;-76
2022/09/17 06:19:15;;;;;;;23.23;17.37;;;;;;;;;;5117351;27;20294;-75
2022/09/17 06:21:43;;;;;;;23.17;15.63;;;;;;;;;;5116763;27;20223;-76
2022/09/17 06:24:10;;;;;;;22.53;16.00;;;;;;;;;;5113240;28;20903;-76
2022/09/17 06:26:38;;;;;;;27.33;19.90;;;;;;;;;;5118448;27;20661;-76
2022/09/17 06:29:05;;;;;;;29.70;21.00;;;;;;;;;;5127248;27;20229;-76
2022/09/17 06:31:32;;;;;;;28.93;21.07;;;;;;;;;;5118897;28;20698;-76
2022/09/17 06:34:01;;;;;;;30.97;20.83;;;;;;;;;;5126259;28;20221;-76
2022/09/17 06:36:28;;;;;;;26.07;18.20;;;;;;;;;;5125309;27;20191;-76
2022/09/17 06:38:55;;;;;;;25.67;18.17;;;;;;;;;;5129918;27;20299;-75
2022/09/17 06:41:23;;;;;;;20.37;15.57;;;;;;;;;;5117641;28;20253;-76
2022/09/17 06:43:53;;;;;;;22.30;16.00;;;;;;;;;;5125875;28;20230;-75
2022/09/17 06:46:20;;;;;;;26.70;18.10;;;;;;;;;;5115739;28;20201;-76
2022/09/17 06:48:47;;;;;;;46.40;31.83;;;;;;;;;;5128011;27;20227;-75
2022/09/17 06:51:16;;;;;;;67.33;45.20;;;;;;;;;;5113774;27;20668;-75
2022/09/17 06:53:43;;;;;;;102.43;67.97;;;;;;;;;;5113765;28;20240;-76
2022/09/17 06:56:10;;;;;;;94.17;60.60;;;;;;;;;;5113588;28;20616;-76
2022/09/17 06:58:40;;;;;;;97.00;65.27;;;;;;;;;;5111693;28;20672;-76
2022/09/17 07:01:07;;;;;;;79.40;53.57;;;;;;;;;;5111696;28;20198;-77
2022/09/17 07:03:34;;;;;;;68.10;48.27;;;;;;;;;;5110139;28;20276;-77
2022/09/17 07:06:01;;;;;;;69.50;49.07;;;;;;;;;;5111118;28;20226;-76
2022/09/17 07:08:33;;;;;;;78.20;52.67;;;;;;;;;;5110708;28;20234;-76
2022/09/17 07:11:00;;;;;;;96.00;65.80;;;;;;;;;;5113843;28;20237;-76
2022/09/17 07:13:27;;;;;;;100.30;73.13;;;;;;;;;;5114876;28;20229;-77
2022/09/17 07:15:55;;;;;;;124.97;91.00;;;;;;;;;;5125943;27;20641;-77
2022/09/17 07:18:22;;;;;;;163.27;120.50;;;;;;;;;;5123079;27;20284;-76
2022/09/17 07:20:53;;;;;;;174.63;124.97;;;;;;;;;;5118822;27;20198;-77
2022/09/17 07:23:21;;;;;;;106.95;80.43;;;;;;;;;;5126033;27;20201;-77
2022/09/17 07:25:53;;;;;;;96.07;71.00;;;;;;;;;;5128826;27;20292;-76
2022/09/17 07:28:21;;;;;;;78.55;60.88;;;;;;;;;;5114685;28;20281;-76
2022/09/17 07:30:48;;;;;;;73.13;55.25;;;;;;;;;;5113376;28;20208;-76
2022/09/17 07:33:16;;;;;;;85.80;64.80;;;;;;;;;;5113442;28;20249;-76
2022/09/17 07:35:43;;;;;;;65.90;51.00;;;;;;;;;;5115307;28;20227;-77
2022/09/17 07:38:11;;;;;;;62.08;45.53;;;;;;;;;;5115115;27;20225;-77
2022/09/17 07:40:38;;;;;;;34.08;29.13;;;;;;;;;;5115410;27;20233;-77
2022/09/17 07:43:07;;;;;;;30.52;23.60;;;;;;;;;;5119890;27;20289;-76
2022/09/17 07:45:34;;;;;;;23.35;18.05;;;;;;;;;;5135343;27;20207;-76
2022/09/17 07:48:02;;;;;;;29.60;23.45;;;;;;;;;;5127916;27;20289;-77
2022/09/17 07:50:30;;;;;;;22.15;18.67;;;;;;;;;;5119282;27;20284;-78
2022/09/17 07:52:57;;;;;;;14.13;12.25;;;;;;;;;;5132824;27;20227;-77
2022/09/17 07:55:25;;;;;;;15.23;11.73;;;;;;;;;;5115412;28;20256;-78
2022/09/17 07:57:53;;;;;;;15.48;12.15;;;;;;;;;;5120691;27;20221;-78
2022/09/17 08:00:21;;;;;;;15.63;12.75;;;;;;;;;;5126194;27;20200;-77
2022/09/17 08:02:53;;;;;;;14.07;10.77;;;;;;;;;;5134040;27;20258;-77
2022/09/17 08:05:20;;;;;;;14.18;11.43;;;;;;;;;;5114419;28;20613;-78
2022/09/17 08:07:50;;;;;;;7.13;5.10;;;;;;;;;;5115094;28;20225;-78
2022/09/17 08:10:20;;;;;;;15.23;13.60;;;;;;;;;;5113601;28;20209;-78
2022/09/17 08:12:47;;;;;;;18.50;16.55;;;;;;;;;;5113054;28;20226;-78
2022/09/17 08:15:14;;;;;;;16.48;11.95;;;;;;;;;;5132579;27;20205;-78
2022/09/17 08:17:45;;;;;;;4.53;3.90;;;;;;;;;;5137870;27;20285;-78
2022/09/17 08:20:12;;;;;;;5.95;3.90;;;;;;;;;;5121230;27;20915;-77
2022/09/17 08:22:39;;;;;;;3.22;2.83;;;;;;;;;;5121218;27;20235;-77
2022/09/17 08:25:07;;;;;;;4.72;2.40;;;;;;;;;;5126816;27;20244;-77
2022/09/17 08:27:36;;;;;;;3.50;2.70;;;;;;;;;;5117602;27;20232;-77
2022/09/17 08:30:03;;;;;;;3.00;2.40;;;;;;;;;;5122551;27;20254;-78
2022/09/17 08:32:31;;;;;;;5.15;3.97;;;;;;;;;;5129349;27;20244;-74
2022/09/17 08:34:59;;;;;;;5.65;3.67;;;;;;;;;;5116008;27;20239;-75
2022/09/17 08:37:27;;;;;;;5.40;3.72;;;;;;;;;;5119622;27;20204;-75
2022/09/17 08:39:54;;;;;;;5.22;4.28;;;;;;;;;;5122783;27;20197;-75
2022/09/17 08:42:24;;;;;;;4.93;3.60;;;;;;;;;;5116781;27;20217;-75
2022/09/17 08:44:52;;;;;;;5.47;4.40;;;;;;;;;;5123309;27;20232;-75
2022/09/17 08:47:24;;;;;;;7.57;4.75;;;;;;;;;;5121243;27;20293;-75
2022/09/17 08:49:53;;;;;;;4.68;3.38;;;;;;;;;;5113960;27;20272;-75
2022/09/17 08:52:35;;;;;;;4.00;2.42;;;;;;;;;;5126667;27;20213;-75
2022/09/17 08:55:10;;;;;;;2.28;1.80;;;;;;;;;;5134076;27;20197;-75
2022/09/17 08:57:41;;;;;;;3.72;1.55;;;;;;;;;;5119856;27;20297;-75
2022/09/17 09:00:12;;;;;;;3.83;1.20;;;;;;;;;;5127954;27;20240;-75
2022/09/17 09:02:51;;;;;;;1.63;0.77;;;;;;;;;;5118803;27;20698;-75
2022/09/17 09:05:19;;;;;;;2.72;1.08;;;;;;;;;;5113342;28;20236;-75
2022/09/17 09:07:49;;;;;;;3.35;1.20;;;;;;;;;;5113776;27;20210;-75
2022/09/17 09:10:22;;;;;;;3.38;0.85;;;;;;;;;;5114095;27;20289;-75
2022/09/17 09:12:51;;;;;;;2.13;0.90;;;;;;;;;;5114607;27;20217;-73
2022/09/17 09:15:22;;;;;;;1.48;0.98;;;;;;;;;;5118068;27;20225;-74
2022/09/17 09:17:53;;;;;;;2.38;1.00;;;;;;;;;;5112840;28;20189;-73
2022/09/17 09:20:24;;;;;;;2.03;1.00;;;;;;;;;;5127699;27;20201;-74
2022/09/17 09:22:52;;;;;;;3.55;0.80;;;;;;;;;;5124391;27;20194;-73
2022/09/17 09:25:23;;;;;;;1.52;0.57;;;;;;;;;;5130115;27;20530;-75
2022/09/17 09:27:57;;;;;;;2.67;0.80;;;;;;;;;;5129195;27;20229;-75
2022/09/17 09:30:24;;;;;;;1.45;0.80;;;;;;;;;;5120394;27;20291;-75
2022/09/17 09:32:56;;;;;;;2.42;0.88;;;;;;;;;;5136843;27;20308;-75
2022/09/17 09:35:26;;;;;;;2.10;0.90;;;;;;;;;;5123580;27;20292;-75
2022/09/17 09:37:56;;;;;;;2.03;0.70;;;;;;;;;;5113965;27;20285;-75
2022/09/17 09:40:36;;;;;;;1.95;0.63;;;;;;;;;;5125547;27;20253;-74
2022/09/17 09:43:09;;;;;;;1.58;0.60;;;;;;;;;;5122540;27;20197;-75
2022/09/17 09:45:49;;;;;;;0.93;0.52;;;;;;;;;;5126788;27;20235;-75
2022/09/17 09:48:19;;;;;;;2.33;0.60;;;;;;;;;;5144219;27;20284;-75
2022/09/17 09:50:48;;;;;;;3.95;0.60;;;;;;;;;;5114042;27;20285;-74
2022/09/17 09:53:20;;;;;;;1.83;0.70;;;;;;;;;;5118484;27;20220;-75
2022/09/17 09:56:03;;;;;;;4.00;1.27;;;;;;;;;;5116289;27;20297;-74
2022/09/17 09:58:32;;;;;;;3.40;0.70;;;;;;;;;;5117707;27;20217;-75
2022/09/17 10:01:00;;;;;;;2.75;0.60;;;;;;;;;;5127666;27;20284;-75
2022/09/17 10:03:30;;;;;;;3.03;0.77;;;;;;;;;;5111138;28;20638;-75
2022/09/17 10:05:59;;;;;;;1.55;0.52;;;;;;;;;;5118155;27;20263;-74
2022/09/17 10:08:27;;;;;;;0.98;0.70;;;;;;;;;;5113377;27;20264;-75
2022/09/17 10:10:58;;;;;;;1.90;0.73;;;;;;;;;;5122780;27;20233;-75
2022/09/17 10:13:28;;;;;;;3.42;0.80;;;;;;;;;;5124162;27;20683;-75
2022/09/17 10:15:56;;;;;;;1.52;0.50;;;;;;;;;;5111486;28;20298;-75
2022/09/17 10:18:24;;;;;;;3.25;0.80;;;;;;;;;;5112134;28;20198;-75
2022/09/17 10:20:53;;;;;;;2.65;0.60;;;;;;;;;;5111791;28;20202;-75
2022/09/17 10:23:21;;;;;;;2.42;0.70;;;;;;;;;;5111829;28;20625;-74
2022/09/17 10:25:49;;;;;;;3.15;0.70;;;;;;;;;;5111288;28;20237;-75
2022/09/17 10:28:40;;;;;;;3.88;0.63;;;;;;;;;;5112525;28;20254;-74
2022/09/17 10:31:09;;;;;;;2.10;0.60;;;;;;;;;;5121478;28;20736;-75
2022/09/17 10:33:38;;;;;;;3.28;1.10;;;;;;;;;;5127756;27;20282;-75
2022/09/17 10:36:08;;;;;;;2.28;0.90;;;;;;;;;;5125001;28;20243;-75
2022/09/17 10:38:37;;;;;;;3.10;0.77;;;;;;;;;;5123720;27;20189;-75
2022/09/17 10:41:12;;;;;;;2.42;0.80;;;;;;;;;;5113362;27;20285;-75
2022/09/17 10:43:41;;;;;;;3.20;0.70;;;;;;;;;;5129544;27;20642;-75
2022/09/17 10:46:10;;;;;;;1.85;0.68;;;;;;;;;;5132988;27;20292;-75
2022/09/17 10:48:40;;;;;;;2.95;1.05;;;;;;;;;;5116523;28;20683;-75
2022/09/17 10:51:09;;;;;;;1.05;0.60;;;;;;;;;;5127260;27;20645;-75
2022/09/17 10:53:39;;;;;;;1.95;0.70;;;;;;;;;;5116560;27;20221;-75
2022/09/17 10:56:09;;;;;;;2.30;1.15;;;;;;;;;;5116116;27;20197;-75
2022/09/17 10:58:44;;;;;;;4.53;1.05;;;;;;;;;;5127207;27;20304;-76
2022/09/17 11:01:21;;;;;;;1.98;1.40;;;;;;;;;;5128832;27;20224;-75
2022/09/17 11:04:12;;;;;;;5.38;3.80;;;;;;;;;;5130515;27;20274;-75
2022/09/17 11:06:50;;;;;;;1.30;0.60;;;;;;;;;;5126123;27;20263;-75
2022/09/17 11:09:24;;;;;;;1.85;0.70;;;;;;;;;;5122965;27;20262;-75
2022/09/17 11:11:59;;;;;;;4.25;0.70;;;;;;;;;;5118343;27;20236;-75
2022/09/17 11:14:36;;;;;;;1.83;0.80;;;;;;;;;;5133499;27;20213;-76
2022/09/17 11:17:14;;;;;;;2.45;0.77;;;;;;;;;;5115686;28;20209;-75
2022/09/17 11:19:46;;;;;;;1.73;0.63;;;;;;;;;;5121593;27;20224;-76
2022/09/17 11:22:19;;;;;;;2.60;0.60;;;;;;;;;;5124535;27;20280;-77
2022/09/17 11:25:00;;;;;;;1.23;0.60;;;;;;;;;;5118804;27;20239;-76
2022/09/17 11:27:35;;;;;;;1.88;0.90;;;;;;;;;;5123460;27;20311;-75
2022/09/17 11:30:09;;;;;;;2.40;0.60;;;;;;;;;;5114797;28;20288;-76
2022/09/17 11:32:52;;;;;;;3.55;0.70;;;;;;;;;;5126585;27;20316;-75
2022/09/17 11:35:21;;;;;;;1.90;0.60;;;;;;;;;;5124320;27;20273;-76
2022/09/17 11:37:52;;;;;;;2.15;0.47;;;;;;;;;;5124419;27;20209;-77
2022/09/17 11:40:22;;;;;;;1.25;0.55;;;;;;;;;;5116383;27;20250;-76
2022/09/17 11:42:52;;;;;;;2.20;0.50;;;;;;;;;;5124459;27;20286;-77
2022/09/17 11:45:21;;;;;;;3.05;0.80;;;;;;;;;;5126777;27;20243;-76
2022/09/17 11:47:52;;;;;;;2.00;0.60;;;;;;;;;;5124800;27;20609;-76
2022/09/17 11:50:22;;;;;;;1.65;0.60;;;;;;;;;;5114949;28;20206;-75
2022/09/17 11:53:01;;;;;;;1.80;0.75;;;;;;;;;;5114972;28;20673;-76
2022/09/17 11:55:31;;;;;;;3.78;0.70;;;;;;;;;;5123149;27;20682;-75
2022/09/17 11:58:01;;;;;;;2.22;0.82;;;;;;;;;;5124866;27;20228;-76
2022/09/17 12:00:30;;;;;;;2.28;0.55;;;;;;;;;;5132429;27;20222;-76
2022/09/17 12:03:00;;;;;;;3.60;0.70;;;;;;;;;;5115436;27;20205;-76
2022/09/17 12:05:29;;;;;;;3.08;0.60;;;;;;;;;;5126983;27;20194;-77
2022/09/17 12:08:00;;;;;;;1.15;0.55;;;;;;;;;;5125939;27;20667;-79
2022/09/17 12:10:44;;;;;;;1.73;0.50;;;;;;;;;;5135311;27;20201;-79
2022/09/17 12:13:17;;;;;;;2.25;0.70;;;;;;;;;;5135856;27;20303;-79
2022/09/17 12:15:47;;;;;;;1.40;0.50;;;;;;;;;;5131007;27;20198;-79
2022/09/17 12:18:22;;;;;;;2.78;0.60;;;;;;;;;;5115564;28;20229;-79
2022/09/17 12:20:51;;;;;;;2.00;0.65;;;;;;;;;;5115315;28;20682;-79
2022/09/17 12:23:31;;;;;;;1.90;0.80;;;;;;;;;;5124143;27;20280;-79
2022/09/17 12:26:03;;;;;;;1.10;0.50;;;;;;;;;;5120194;27;20724;-79
2022/09/17 12:28:34;;;;;;;3.55;0.80;;;;;;;;;;5135810;27;20239;-79
2022/09/17 12:31:04;;;;;;;4.70;1.00;;;;;;;;;;5133508;27;20228;-79
2022/09/17 12:33:35;;;;;;;2.47;0.60;;;;;;;;;;5118969;27;20724;-79
2022/09/17 12:36:22;;;;;;;1.42;0.77;;;;;;;;;;5115225;28;20244;-79
2022/09/17 12:39:04;;;;;;;1.30;0.47;;;;;;;;;;5122287;27;20240;-79
2022/09/17 12:41:37;;;;;;;2.50;0.60;;;;;;;;;;5135705;27;20197;-79
2022/09/17 12:44:17;;;;;;;0.88;0.55;;;;;;;;;;5135145;27;20668;-79
2022/09/17 12:46:51;;;;;;;1.65;0.75;;;;;;;;;;5135532;27;20236;-79
2022/09/17 12:49:29;;;;;;;1.60;0.60;;;;;;;;;;5135750;27;20205;-79
2022/09/17 12:51:57;;;;;;;2.70;0.65;;;;;;;;;;5128156;27;20221;-79
2022/09/17 12:54:45;;;;;;;1.67;0.47;;;;;;;;;;5114574;28;20218;-79
2022/09/17 12:57:19;;;;;;;2.10;0.73;;;;;;;;;;5117881;27;20262;-79
2022/09/17 12:59:49;;;;;;;1.75;0.55;;;;;;;;;;5114366;28;20609;-79
2022/09/17 13:02:18;;;;;;;2.65;0.70;;;;;;;;;;5113998;28;20225;-79
2022/09/17 13:05:06;;;;;;;2.40;0.60;;;;;;;;;;5114314;28;20229;-79
2022/09/17 13:07:38;;;;;;;1.08;0.40;;;;;;;;;;5113119;28;20288;-79
2022/09/17 13:10:24;;;;;;;1.67;0.55;;;;;;;;;;5113992;28;20622;-79
2022/09/17 13:12:56;;;;;;;1.95;0.60;;;;;;;;;;5113725;28;20277;-78
2022/09/17 13:15:45;;;;;;;1.27;0.55;;;;;;;;;;5113495;28;20243;-79
2022/09/17 13:18:15;;;;;;;1.90;0.55;;;;;;;;;;5108584;27;20204;-79
2022/09/17 13:20:49;;;;;;;2.15;0.55;;;;;;;;;;5120336;27;20220;-79
2022/09/17 13:23:16;;;;;;;3.88;0.77;;;;;;;;;;5117771;27;20229;-79
2022/09/17 13:25:50;;;;;;;2.20;0.50;;;;;;;;;;5121682;27;20277;-78
2022/09/17 13:28:17;;;;;;;2.90;0.40;;;;;;;;;;5113668;28;20204;-79
2022/09/17 13:30:57;;;;;;;2.75;0.60;;;;;;;;;;5131423;27;20236;-79
2022/09/17 13:33:43;;;;;;;2.35;0.60;;;;;;;;;;5134018;27;20719;-79
2022/09/17 13:36:25;;;;;;;1.90;0.68;;;;;;;;;;5113443;28;20852;-78
2022/09/17 13:38:54;;;;;;;2.03;0.57;;;;;;;;;;5113561;27;20257;-79
2022/09/17 13:41:24;;;;;;;0.93;0.50;;;;;;;;;;5115351;27;20637;-79
2022/09/17 13:43:53;;;;;;;1.42;0.50;;;;;;;;;;5113676;27;20223;-79
2022/09/17 13:46:23;;;;;;;3.00;0.77;;;;;;;;;;5117301;27;20203;-77
2022/09/17 13:48:52;;;;;;;2.15;0.70;;;;;;;;;;5125796;27;20197;-78
2022/09/17 13:51:38;;;;;;;2.75;0.85;;;;;;;;;;5137519;27;20243;-79
2022/09/17 13:54:08;;;;;;;2.00;0.75;;;;;;;;;;5117211;27;20247;-78
2022/09/17 13:56:37;;;;;;;1.67;0.70;;;;;;;;;;5129254;27;20234;-77
2022/09/17 13:59:07;;;;;;;1.27;0.70;;;;;;;;;;5117562;27;20253;-78
2022/09/17 14:01:52;;;;;;;1.15;0.60;;;;;;;;;;5112645;27;20225;-79
2022/09/17 14:04:32;;;;;;;2.30;0.52;;;;;;;;;;5116089;27;20222;-79
2022/09/17 14:06:59;;;;;;;1.15;0.50;;;;;;;;;;5136079;27;20239;-78
2022/09/17 14:09:45;;;;;;;2.42;0.75;;;;;;;;;;5139376;27;20680;-79
2022/09/17 14:12:31;;;;;;;1.60;0.50;;;;;;;;;;5124116;27;20202;-79
2022/09/17 14:14:59;;;;;;;1.58;0.60;;;;;;;;;;5132942;27;20260;-78
2022/09/17 14:17:41;;;;;;;1.55;0.60;;;;;;;;;;5146176;27;20276;-79
2022/09/17 14:20:09;;;;;;;2.33;0.55;;;;;;;;;;5114169;27;20228;-79
2022/09/17 14:22:36;;;;;;;0.95;0.50;;;;;;;;;;5145420;27;20201;-78
2022/09/17 14:25:03;;;;;;;2.83;0.73;;;;;;;;;;5125900;27;20665;-77
2022/09/17 14:27:37;;;;;;;2.83;0.70;;;;;;;;;;5115956;27;20266;-77
2022/09/17 14:30:12;;;;;;;1.13;0.70;;;;;;;;;;5129486;27;20613;-78
2022/09/17 14:32:45;;;;;;;1.77;0.90;;;;;;;;;;5129519;27;20231;-78
2022/09/17 14:35:18;;;;;;;2.88;0.70;;;;;;;;;;5131032;27;20574;-79
2022/09/17 14:37:47;;;;;;;1.42;0.60;;;;;;;;;;5133266;27;20246;-78
2022/09/17 14:40:17;;;;;;;2.15;0.70;;;;;;;;;;5131404;27;20232;-80
2022/09/17 14:42:47;;;;;;;3.78;0.73;;;;;;;;;;5113655;27;20233;-80
2022/09/17 14:45:17;;;;;;;2.30;0.70;;;;;;;;;;5112919;28;20196;-75
2022/09/17 14:47:44;;;;;;;2.17;0.60;;;;;;;;;;5112671;28;20284;-79
2022/09/17 14:50:21;;;;;;;1.70;0.80;;;;;;;;;;5113236;28;20233;-77